Hillsborough, California
Current Conditions -  °F | °C
As of 9:56 AM on Friday 21 Nov 2014 (Local Time) from KSFO Reporting Station
Broken Clouds Broken Clouds  
Wind Chill: 58°   Ceiling: 16000
Heat Index: 58°   Visibility: 9mi
Dew Point: 54°   Wind: 6mph
Humidity: 87%   Direction: 90°E
Pressure: 30.11"   Gusts: NA
Location:  37.58°N, 122.35°W
Report Text: KSFO 211756Z 09005KT 9SM FEW010 SCT022 BKN160 14/12 A3011 RMK AO2 SLP197 T01440122 10144 20122 51015
Loading
Personal Weather Stations






























Interactive Weather Map New forecast layout! Learn more

10-Day Weather Forecast

Advertisements
Track Severe Weather on mobile